Time;durP1;ratioP1;P1;durP2;ratioP2;P2;SDS_P1;SDS_P2;PMS_P1;PMS_P2;Temp;Humidity;BMP_temperature;BMP_pressure;BME280_temperature;BME280_humidity;BME280_pressure;Samples;Min_cycle;Max_cycle;Signal;HPM_P1;HPM_P2
2022/07/12 00:02:00;;;;;;;3.30;2.60;;;;;;;;;;5096341;28;20477;-74
2022/07/12 00:04:27;;;;;;;3.13;2.83;;;;;;;;;;5096016;28;20453;-73
2022/07/12 00:06:54;;;;;;;3.13;2.83;;;;;;;;;;5096015;28;20450;-74
2022/07/12 00:09:21;;;;;;;2.80;2.30;;;;;;;;;;5096209;28;21000;-73
2022/07/12 00:11:50;;;;;;;5.70;2.60;;;;;;;;;;5094651;28;20552;-74
2022/07/12 00:14:17;;;;;;;4.37;3.20;;;;;;;;;;5095721;28;20464;-74
2022/07/12 00:16:44;;;;;;;5.97;2.80;;;;;;;;;;5096118;28;20450;-74
2022/07/12 00:19:11;;;;;;;2.73;2.37;;;;;;;;;;5096050;28;20451;-73
2022/07/12 00:21:38;;;;;;;2.50;1.90;;;;;;;;;;5095755;28;20477;-74
2022/07/12 00:24:06;;;;;;;3.73;2.40;;;;;;;;;;5095628;28;20471;-74
2022/07/12 00:26:33;;;;;;;3.27;2.83;;;;;;;;;;5095768;28;20470;-74
2022/07/12 00:29:01;;;;;;;2.57;2.37;;;;;;;;;;5095408;28;20489;-74
2022/07/12 00:31:29;;;;;;;3.33;2.87;;;;;;;;;;5095475;28;20514;-74
2022/07/12 00:33:56;;;;;;;2.97;2.67;;;;;;;;;;5095313;28;20954;-74
2022/07/12 00:36:23;;;;;;;3.20;2.00;;;;;;;;;;5095584;28;20458;-74
2022/07/12 00:38:50;;;;;;;3.03;2.43;;;;;;;;;;5095572;28;20450;-74
2022/07/12 00:41:17;;;;;;;2.37;2.17;;;;;;;;;;5095105;28;20470;-74
2022/07/12 00:43:44;;;;;;;3.10;2.40;;;;;;;;;;5095414;28;20826;-74
2022/07/12 00:46:13;;;;;;;3.40;2.87;;;;;;;;;;5095248;28;20451;-74
2022/07/12 00:48:40;;;;;;;5.13;3.27;;;;;;;;;;5095290;28;20487;-75
2022/07/12 00:51:08;;;;;;;4.43;4.03;;;;;;;;;;5095032;28;20463;-73
2022/07/12 00:53:36;;;;;;;5.03;4.53;;;;;;;;;;5095076;28;20458;-74
2022/07/12 00:56:04;;;;;;;4.27;3.27;;;;;;;;;;5095414;28;20951;-74
2022/07/12 00:58:32;;;;;;;4.57;2.83;;;;;;;;;;5095096;28;20462;-73
2022/07/12 01:00:59;;;;;;;5.20;2.73;;;;;;;;;;5094831;28;20459;-74
2022/07/12 01:03:28;;;;;;;2.73;2.53;;;;;;;;;;5094913;28;20446;-73
2022/07/12 01:05:56;;;;;;;2.90;2.53;;;;;;;;;;5095165;28;20983;-74
2022/07/12 01:08:23;;;;;;;4.93;3.00;;;;;;;;;;5094628;28;20478;-74
2022/07/12 01:10:50;;;;;;;3.90;2.77;;;;;;;;;;5094757;28;20455;-74
2022/07/12 01:13:18;;;;;;;3.60;3.30;;;;;;;;;;5094605;28;20493;-74
2022/07/12 01:15:45;;;;;;;6.63;3.30;;;;;;;;;;5094602;28;20975;-74
2022/07/12 01:18:12;;;;;;;6.60;2.90;;;;;;;;;;5094547;28;20837;-74
2022/07/12 01:20:41;;;;;;;4.97;3.47;;;;;;;;;;5094842;28;20454;-74
2022/07/12 01:23:09;;;;;;;3.83;3.40;;;;;;;;;;5094441;28;20470;-74
2022/07/12 01:25:37;;;;;;;3.00;2.70;;;;;;;;;;5094315;28;20465;-73
2022/07/12 01:28:04;;;;;;;3.50;3.03;;;;;;;;;;5094327;28;20450;-73
2022/07/12 01:30:31;;;;;;;9.40;3.30;;;;;;;;;;5094285;28;20494;-74
2022/07/12 01:32:58;;;;;;;3.43;3.10;;;;;;;;;;5094459;28;20478;-74
2022/07/12 01:35:26;;;;;;;6.40;3.83;;;;;;;;;;5094069;28;20443;-74
2022/07/12 01:37:53;;;;;;;6.30;3.80;;;;;;;;;;5094577;28;20946;-74
2022/07/12 01:40:21;;;;;;;3.90;3.50;;;;;;;;;;5094175;28;20453;-74
2022/07/12 01:42:50;;;;;;;4.07;3.60;;;;;;;;;;5093949;28;20486;-74
2022/07/12 01:45:18;;;;;;;4.87;4.13;;;;;;;;;;5094191;28;20470;-74
2022/07/12 01:47:45;;;;;;;5.80;4.07;;;;;;;;;;5094363;28;20447;-74
2022/07/12 01:50:12;;;;;;;4.03;3.63;;;;;;;;;;5093873;28;20487;-74
2022/07/12 01:52:41;;;;;;;4.20;3.70;;;;;;;;;;5093712;28;20838;-74
2022/07/12 01:55:08;;;;;;;4.73;4.00;;;;;;;;;;5093697;28;20455;-73
2022/07/12 01:57:37;;;;;;;4.57;3.47;;;;;;;;;;5093931;28;20477;-74
2022/07/12 02:00:05;;;;;;;4.83;3.90;;;;;;;;;;5093889;28;20462;-73
2022/07/12 02:02:33;;;;;;;3.80;3.40;;;;;;;;;;5093903;28;20565;-74
2022/07/12 02:05:00;;;;;;;5.77;3.23;;;;;;;;;;5093722;28;20453;-74
2022/07/12 02:07:27;;;;;;;5.10;3.20;;;;;;;;;;5093968;28;20500;-73
2022/07/12 02:09:55;;;;;;;3.67;3.37;;;;;;;;;;5093587;28;20958;-73
2022/07/12 02:12:22;;;;;;;3.30;2.73;;;;;;;;;;5093436;28;20468;-73
2022/07/12 02:14:51;;;;;;;4.00;3.27;;;;;;;;;;5093471;28;20835;-73
2022/07/12 02:17:18;;;;;;;5.10;3.00;;;;;;;;;;5093578;28;20966;-73
2022/07/12 02:19:45;;;;;;;5.27;3.90;;;;;;;;;;5093573;28;20443;-73
2022/07/12 02:22:12;;;;;;;6.10;3.30;;;;;;;;;;5093400;28;21006;-73
2022/07/12 02:24:39;;;;;;;3.93;3.43;;;;;;;;;;5093163;28;20462;-73
2022/07/12 02:27:07;;;;;;;8.40;3.00;;;;;;;;;;5093363;28;20979;-73
2022/07/12 02:29:35;;;;;;;4.30;3.37;;;;;;;;;;5093554;28;20493;-73
2022/07/12 02:32:03;;;;;;;4.30;3.67;;;;;;;;;;5093191;28;20524;-73
2022/07/12 02:34:31;;;;;;;6.80;3.77;;;;;;;;;;5092475;28;20801;-73
2022/07/12 02:36:58;;;;;;;4.10;3.60;;;;;;;;;;5093564;28;20446;-73
2022/07/12 02:39:25;;;;;;;3.83;3.53;;;;;;;;;;5093113;28;20804;-73
2022/07/12 02:41:52;;;;;;;4.77;3.40;;;;;;;;;;5093465;28;20478;-73
2022/07/12 02:44:19;;;;;;;4.73;3.43;;;;;;;;;;5093077;28;20454;-73
2022/07/12 02:46:46;;;;;;;4.27;3.43;;;;;;;;;;5093219;28;20451;-73
2022/07/12 02:49:15;;;;;;;4.23;3.73;;;;;;;;;;5092984;28;20525;-73
2022/07/12 02:51:42;;;;;;;3.67;3.30;;;;;;;;;;5093138;28;20478;-73
2022/07/12 02:54:09;;;;;;;3.50;3.20;;;;;;;;;;5092987;28;20447;-73
2022/07/12 02:56:36;;;;;;;4.77;4.10;;;;;;;;;;5093260;28;20442;-73
2022/07/12 02:59:03;;;;;;;3.60;3.30;;;;;;;;;;5093340;28;20963;-73
2022/07/12 03:01:30;;;;;;;4.37;3.40;;;;;;;;;;5093323;28;20474;-73
2022/07/12 03:03:58;;;;;;;3.50;3.17;;;;;;;;;;5092985;28;20450;-73
2022/07/12 03:06:26;;;;;;;3.60;3.30;;;;;;;;;;5093133;28;20457;-73
2022/07/12 03:08:53;;;;;;;3.37;3.07;;;;;;;;;;5092859;28;20458;-73
2022/07/12 03:11:20;;;;;;;4.23;3.50;;;;;;;;;;5093230;28;20999;-73
2022/07/12 03:13:47;;;;;;;4.00;3.60;;;;;;;;;;5092915;28;20454;-73
2022/07/12 03:16:14;;;;;;;7.00;3.77;;;;;;;;;;5092780;28;20541;-73
2022/07/12 03:18:43;;;;;;;3.23;2.50;;;;;;;;;;5092848;28;20838;-73
2022/07/12 03:21:11;;;;;;;3.93;3.30;;;;;;;;;;5092743;28;20554;-73
2022/07/12 03:23:40;;;;;;;3.73;3.30;;;;;;;;;;5092638;28;20459;-73
2022/07/12 03:26:08;;;;;;;3.70;2.97;;;;;;;;;;5093112;28;20880;-73
2022/07/12 03:28:35;;;;;;;3.60;3.30;;;;;;;;;;5093011;28;20474;-74
2022/07/12 03:31:02;;;;;;;4.73;3.40;;;;;;;;;;5092619;28;20483;-73
2022/07/12 03:33:29;;;;;;;4.10;2.93;;;;;;;;;;5092654;28;20477;-73
2022/07/12 03:35:56;;;;;;;3.83;3.27;;;;;;;;;;5093043;28;20455;-74
2022/07/12 03:38:23;;;;;;;4.10;3.17;;;;;;;;;;5092561;28;20455;-74
2022/07/12 03:40:52;;;;;;;4.13;3.07;;;;;;;;;;5092637;28;20445;-74
2022/07/12 03:43:19;;;;;;;5.73;2.77;;;;;;;;;;5092717;28;20458;-74
2022/07/12 03:45:46;;;;;;;5.80;3.70;;;;;;;;;;5093360;28;20446;-74
2022/07/12 03:48:13;;;;;;;3.17;2.67;;;;;;;;;;5096311;28;20446;-73
2022/07/12 03:50:40;;;;;;;3.20;2.50;;;;;;;;;;5096259;28;20490;-73
2022/07/12 03:53:07;;;;;;;3.17;2.77;;;;;;;;;;5095878;28;20466;-74
2022/07/12 03:55:34;;;;;;;4.57;3.57;;;;;;;;;;5096428;28;20846;-74
2022/07/12 03:58:03;;;;;;;5.03;3.30;;;;;;;;;;5096158;28;20450;-74
2022/07/12 04:00:30;;;;;;;4.50;3.40;;;;;;;;;;5096458;28;20935;-73
2022/07/12 04:02:57;;;;;;;4.00;2.83;;;;;;;;;;5096349;28;20470;-74
2022/07/12 04:05:26;;;;;;;2.90;2.60;;;;;;;;;;5095901;28;20516;-73
2022/07/12 04:07:53;;;;;;;4.43;2.70;;;;;;;;;;5096263;28;20871;-74
2022/07/12 04:10:21;;;;;;;3.20;2.80;;;;;;;;;;5096000;28;20506;-74
2022/07/12 04:12:48;;;;;;;4.03;3.33;;;;;;;;;;5096011;28;20470;-74
2022/07/12 04:15:16;;;;;;;5.50;4.97;;;;;;;;;;5095689;28;20451;-74
2022/07/12 04:17:43;;;;;;;7.53;4.50;;;;;;;;;;5096015;28;20455;-73
2022/07/12 04:20:11;;;;;;;3.60;2.57;;;;;;;;;;5096056;28;20789;-74
2022/07/12 04:22:39;;;;;;;3.80;2.50;;;;;;;;;;5095786;28;20467;-74
2022/07/12 04:25:06;;;;;;;7.37;2.90;;;;;;;;;;5095395;28;21013;-73
2022/07/12 04:27:33;;;;;;;2.83;2.40;;;;;;;;;;5095888;28;20868;-73
2022/07/12 04:30:00;;;;;;;4.30;2.57;;;;;;;;;;5095722;28;20509;-74
2022/07/12 04:32:29;;;;;;;4.20;3.70;;;;;;;;;;5095842;28;21592;-73
2022/07/12 04:34:56;;;;;;;4.10;3.70;;;;;;;;;;5095700;28;20451;-74
2022/07/12 04:37:23;;;;;;;3.10;2.70;;;;;;;;;;5095496;28;20450;-73
2022/07/12 04:39:50;;;;;;;4.40;3.37;;;;;;;;;;5095662;28;20450;-73
2022/07/12 04:42:17;;;;;;;3.83;3.43;;;;;;;;;;5095524;28;20991;-73
2022/07/12 04:44:44;;;;;;;6.43;3.77;;;;;;;;;;5095331;28;20473;-74
2022/07/12 04:47:11;;;;;;;3.73;3.27;;;;;;;;;;5095380;28;20450;-74
2022/07/12 04:49:40;;;;;;;3.30;2.80;;;;;;;;;;5095447;28;20479;-74
2022/07/12 04:52:07;;;;;;;4.97;3.60;;;;;;;;;;5094545;28;20478;-73
2022/07/12 04:54:34;;;;;;;4.93;3.70;;;;;;;;;;5095088;28;20450;-74
2022/07/12 04:57:02;;;;;;;3.70;3.40;;;;;;;;;;5094698;28;20447;-74
2022/07/12 04:59:29;;;;;;;3.40;2.83;;;;;;;;;;5094935;28;20457;-74
2022/07/12 05:01:56;;;;;;;5.93;3.30;;;;;;;;;;5095236;28;20481;-74
2022/07/12 05:04:23;;;;;;;2.87;2.57;;;;;;;;;;5094678;28;20459;-74
2022/07/12 05:06:52;;;;;;;3.43;2.30;;;;;;;;;;5095109;28;20455;-74
2022/07/12 05:09:19;;;;;;;5.63;3.00;;;;;;;;;;5094743;28;20446;-73
2022/07/12 05:11:46;;;;;;;5.37;2.63;;;;;;;;;;5094967;28;20474;-73
2022/07/12 05:14:14;;;;;;;2.57;2.20;;;;;;;;;;5094486;28;20557;-74
2022/07/12 05:16:41;;;;;;;4.27;3.70;;;;;;;;;;5094741;28;20457;-73
2022/07/12 05:19:08;;;;;;;4.43;4.03;;;;;;;;;;5094570;28;20453;-74
2022/07/12 05:21:35;;;;;;;3.03;2.30;;;;;;;;;;5094466;28;20470;-73
2022/07/12 05:24:04;;;;;;;4.87;3.87;;;;;;;;;;5094478;28;20948;-74
2022/07/12 05:26:31;;;;;;;4.37;2.40;;;;;;;;;;5089773;28;20946;-74
2022/07/12 05:28:58;;;;;;;2.87;1.90;;;;;;;;;;5094682;28;20442;-74
2022/07/12 05:31:26;;;;;;;2.63;1.80;;;;;;;;;;5094061;28;20490;-74
2022/07/12 05:33:53;;;;;;;3.30;1.90;;;;;;;;;;5094040;28;20454;-73
2022/07/12 05:36:20;;;;;;;3.73;2.10;;;;;;;;;;5094222;28;20450;-74
2022/07/12 05:38:48;;;;;;;7.83;1.93;;;;;;;;;;5093870;28;20500;-74
2022/07/12 05:41:16;;;;;;;2.70;1.80;;;;;;;;;;5093939;28;20462;-74
2022/07/12 05:43:43;;;;;;;2.57;1.90;;;;;;;;;;5093962;28;20447;-73
2022/07/12 05:46:11;;;;;;;4.70;2.10;;;;;;;;;;5093906;28;20477;-74
2022/07/12 05:48:38;;;;;;;2.80;1.87;;;;;;;;;;5093906;28;20472;-73
2022/07/12 05:53:46;;;;;;;3.07;2.07;;;;;;;;;;5093561;28;20411;-73
2022/07/12 05:56:13;;;;;;;2.27;2.07;;;;;;;;;;5094005;28;20439;-74
2022/07/12 05:58:42;;;;;;;2.00;1.70;;;;;;;;;;5094038;28;20438;-74
2022/07/12 06:01:09;;;;;;;2.00;1.80;;;;;;;;;;5093675;28;20446;-73
2022/07/12 06:03:36;;;;;;;3.00;1.83;;;;;;;;;;5093539;28;20447;-73
2022/07/12 06:06:03;;;;;;;2.87;1.97;;;;;;;;;;5093695;28;20446;-74
2022/07/12 06:08:30;;;;;;;2.53;1.80;;;;;;;;;;5093407;28;20828;-74
2022/07/12 06:10:58;;;;;;;4.43;1.90;;;;;;;;;;5092979;28;20490;-74
2022/07/12 06:13:25;;;;;;;2.20;2.00;;;;;;;;;;5093660;28;20885;-74
2022/07/12 06:15:55;;;;;;;2.00;1.80;;;;;;;;;;5093204;28;20497;-74
2022/07/12 06:18:22;;;;;;;2.30;1.93;;;;;;;;;;5093462;28;20450;-74
2022/07/12 06:20:49;;;;;;;2.80;2.07;;;;;;;;;;5093288;28;20451;-74
2022/07/12 06:23:16;;;;;;;5.00;2.50;;;;;;;;;;5093531;28;20467;-74
2022/07/12 06:25:43;;;;;;;4.10;2.40;;;;;;;;;;5093282;28;20967;-74
2022/07/12 06:28:10;;;;;;;3.73;2.13;;;;;;;;;;5093136;28;20450;-74
2022/07/12 06:30:37;;;;;;;3.00;2.57;;;;;;;;;;5093184;28;20481;-74
2022/07/12 06:33:06;;;;;;;3.20;2.03;;;;;;;;;;5093170;28;21002;-74
2022/07/12 06:35:33;;;;;;;2.23;2.00;;;;;;;;;;5093034;28;20486;-74
2022/07/12 06:38:01;;;;;;;3.00;2.27;;;;;;;;;;5093457;28;20458;-74
2022/07/12 06:40:28;;;;;;;1.93;1.70;;;;;;;;;;5093110;28;20446;-73
2022/07/12 06:42:55;;;;;;;2.97;2.00;;;;;;;;;;5093133;28;20474;-73
2022/07/12 06:45:22;;;;;;;2.23;1.70;;;;;;;;;;5092995;28;20458;-73
2022/07/12 06:47:49;;;;;;;2.70;1.73;;;;;;;;;;5093438;28;20813;-74
2022/07/12 06:50:17;;;;;;;3.00;1.90;;;;;;;;;;5093272;28;20493;-74
2022/07/12 06:52:44;;;;;;;2.07;1.80;;;;;;;;;;5092893;28;20466;-74
2022/07/12 06:55:11;;;;;;;2.40;2.00;;;;;;;;;;5093131;28;20435;-75
2022/07/12 06:57:39;;;;;;;2.23;2.03;;;;;;;;;;5086317;28;20462;-74
2022/07/12 07:00:06;;;;;;;2.03;1.67;;;;;;;;;;5071500;28;20448;-73
2022/07/12 07:02:34;;;;;;;2.73;1.43;;;;;;;;;;5090276;28;20987;-73
2022/07/12 07:05:01;;;;;;;1.87;1.57;;;;;;;;;;5091544;28;20447;-74
2022/07/12 07:07:29;;;;;;;1.87;1.60;;;;;;;;;;5091418;28;20446;-74
2022/07/12 07:09:56;;;;;;;5.13;2.17;;;;;;;;;;5091645;28;20797;-73
2022/07/12 07:12:23;;;;;;;2.27;2.00;;;;;;;;;;5091274;28;20493;-73
2022/07/12 07:14:50;;;;;;;4.47;1.77;;;;;;;;;;5091739;28;20450;-73
2022/07/12 07:17:19;;;;;;;2.60;1.50;;;;;;;;;;5091356;28;20810;-74
2022/07/12 07:19:46;;;;;;;2.77;2.00;;;;;;;;;;5091735;28;20447;-74
2022/07/12 07:22:13;;;;;;;1.90;1.50;;;;;;;;;;5094979;28;20462;-73
2022/07/12 07:24:42;;;;;;;2.10;1.50;;;;;;;;;;5095501;28;20462;-73
2022/07/12 07:27:09;;;;;;;6.23;1.57;;;;;;;;;;5095039;28;20458;-73
2022/07/12 07:32:21;;;;;;;1.73;1.47;;;;;;;;;;5095505;28;20493;-74
2022/07/12 07:34:48;;;;;;;3.07;1.67;;;;;;;;;;5094966;28;20454;-73
2022/07/12 07:37:15;;;;;;;1.63;1.50;;;;;;;;;;5095259;28;20454;-73
2022/07/12 07:39:43;;;;;;;2.20;1.40;;;;;;;;;;5095365;28;20458;-74
2022/07/12 07:42:10;;;;;;;1.90;1.50;;;;;;;;;;5095014;28;20496;-74
2022/07/12 07:44:38;;;;;;;1.70;1.37;;;;;;;;;;5095019;28;20453;-74
2022/07/12 07:47:05;;;;;;;3.10;1.60;;;;;;;;;;5095131;28;20939;-73
2022/07/12 07:49:32;;;;;;;2.33;1.80;;;;;;;;;;5095105;28;20455;-74
2022/07/12 07:51:59;;;;;;;3.40;2.77;;;;;;;;;;5094768;28;20482;-74
2022/07/12 07:54:26;;;;;;;2.13;1.80;;;;;;;;;;5095075;28;20959;-74
2022/07/12 07:56:55;;;;;;;2.03;1.73;;;;;;;;;;5095290;28;20457;-74
2022/07/12 07:59:22;;;;;;;2.90;1.50;;;;;;;;;;5094684;28;20458;-74
2022/07/12 08:01:52;;;;;;;1.60;1.30;;;;;;;;;;5095086;28;20830;-74
2022/07/12 08:04:19;;;;;;;1.80;1.37;;;;;;;;;;5094747;28;20512;-74
2022/07/12 08:06:47;;;;;;;2.70;1.70;;;;;;;;;;5094722;28;20450;-74
2022/07/12 08:09:14;;;;;;;1.90;1.57;;;;;;;;;;5094490;28;20450;-74
2022/07/12 08:11:41;;;;;;;3.63;1.40;;;;;;;;;;5094608;28;20497;-74
2022/07/12 08:14:10;;;;;;;2.03;1.00;;;;;;;;;;5094797;28;20442;-74
2022/07/12 08:16:37;;;;;;;2.50;1.13;;;;;;;;;;5094731;28;20466;-74
2022/07/12 08:19:04;;;;;;;1.93;1.53;;;;;;;;;;5094828;28;20451;-74
2022/07/12 08:21:32;;;;;;;4.20;1.70;;;;;;;;;;5094514;28;20976;-74
2022/07/12 08:23:59;;;;;;;1.67;1.30;;;;;;;;;;5094068;28;20462;-74
2022/07/12 08:26:27;;;;;;;1.40;1.20;;;;;;;;;;5094104;28;20442;-74
2022/07/12 08:28:54;;;;;;;2.07;1.47;;;;;;;;;;5094222;28;20457;-74
2022/07/12 08:31:23;;;;;;;1.93;1.30;;;;;;;;;;5093794;28;20839;-74
2022/07/12 08:33:50;;;;;;;1.40;1.20;;;;;;;;;;5092951;28;20447;-74
2022/07/12 08:36:17;;;;;;;2.40;1.60;;;;;;;;;;5094142;28;20455;-74
2022/07/12 08:38:44;;;;;;;1.90;1.40;;;;;;;;;;5094385;28;20948;-74
2022/07/12 08:41:13;;;;;;;1.80;1.43;;;;;;;;;;5093779;28;20520;-74
2022/07/12 08:43:41;;;;;;;1.50;1.30;;;;;;;;;;5094216;28;20508;-74
2022/07/12 08:46:09;;;;;;;2.30;1.40;;;;;;;;;;5093945;28;20450;-74
2022/07/12 08:48:38;;;;;;;3.20;1.40;;;;;;;;;;5094154;28;20458;-74
2022/07/12 08:51:06;;;;;;;2.70;1.27;;;;;;;;;;5094055;28;20903;-74
2022/07/12 08:53:33;;;;;;;2.73;1.90;;;;;;;;;;5094214;28;20550;-73
2022/07/12 08:56:01;;;;;;;1.87;1.67;;;;;;;;;;5072726;28;20927;-74
2022/07/12 08:58:28;;;;;;;1.70;1.43;;;;;;;;;;5073408;28;20436;-74
2022/07/12 09:00:55;;;;;;;1.70;1.30;;;;;;;;;;5072695;28;20452;-73
2022/07/12 09:03:22;;;;;;;2.00;1.43;;;;;;;;;;5093429;28;20443;-73
2022/07/12 09:05:52;;;;;;;2.27;1.70;;;;;;;;;;5093695;28;20948;-74
2022/07/12 09:08:20;;;;;;;1.43;1.20;;;;;;;;;;5093463;28;20892;-74
2022/07/12 09:10:54;;;;;;;1.50;1.20;;;;;;;;;;5093134;28;20450;-74
2022/07/12 09:13:21;;;;;;;1.97;1.43;;;;;;;;;;5093513;28;20827;-74
2022/07/12 09:15:48;;;;;;;3.10;1.20;;;;;;;;;;5093685;28;20442;-74
2022/07/12 09:18:17;;;;;;;3.00;1.40;;;;;;;;;;5093163;28;20458;-74
2022/07/12 09:20:51;;;;;;;1.57;1.40;;;;;;;;;;5093380;28;20463;-74
2022/07/12 09:23:20;;;;;;;2.10;1.90;;;;;;;;;;5093127;28;20435;-74
2022/07/12 09:25:48;;;;;;;2.80;2.27;;;;;;;;;;5092889;28;20463;-74
2022/07/12 09:28:16;;;;;;;1.60;1.33;;;;;;;;;;5092995;28;21017;-74
2022/07/12 09:30:48;;;;;;;1.70;1.50;;;;;;;;;;5093227;28;20543;-74
2022/07/12 09:36:10;;;;;;;1.50;1.30;;;;;;;;;;5093007;28;20826;-74
2022/07/12 09:38:38;;;;;;;2.07;1.73;;;;;;;;;;5093005;28;20446;-74
2022/07/12 09:41:06;;;;;;;6.50;1.87;;;;;;;;;;5092675;28;20446;-74
2022/07/12 09:43:33;;;;;;;1.80;1.40;;;;;;;;;;5092607;28;20458;-74
2022/07/12 09:46:00;;;;;;;1.77;1.10;;;;;;;;;;5072391;28;20463;-74
2022/07/12 09:48:28;;;;;;;5.83;1.43;;;;;;;;;;5072405;28;20455;-74
2022/07/12 09:50:57;;;;;;;3.07;1.30;;;;;;;;;;5072044;28;20534;-74
2022/07/12 09:53:28;;;;;;;2.90;1.20;;;;;;;;;;5072180;28;20478;-74
2022/07/12 09:55:57;;;;;;;1.53;1.10;;;;;;;;;;5072631;28;20447;-74
2022/07/12 09:58:25;;;;;;;3.30;1.60;;;;;;;;;;5072344;28;21023;-74
2022/07/12 10:00:54;;;;;;;1.70;1.20;;;;;;;;;;5072611;28;20458;-74
2022/07/12 10:03:23;;;;;;;1.83;1.10;;;;;;;;;;5073412;28;20480;-74
2022/07/12 10:05:51;;;;;;;2.00;1.30;;;;;;;;;;5073515;28;20481;-75
2022/07/12 10:08:19;;;;;;;3.77;1.40;;;;;;;;;;5073614;28;20463;-75
2022/07/12 10:10:46;;;;;;;2.07;1.00;;;;;;;;;;5073622;28;20809;-74
2022/07/12 10:13:15;;;;;;;1.43;1.10;;;;;;;;;;5073376;28;20491;-74
2022/07/12 10:15:44;;;;;;;2.70;1.23;;;;;;;;;;5072622;28;20948;-74
2022/07/12 10:18:17;;;;;;;3.20;1.30;;;;;;;;;;5091578;28;20875;-74
2022/07/12 10:20:44;;;;;;;4.40;1.00;;;;;;;;;;5093565;28;20494;-73
2022/07/12 10:23:30;;;;;;;1.30;1.00;;;;;;;;;;5093442;28;20458;-74
2022/07/12 10:25:57;;;;;;;1.40;1.00;;;;;;;;;;5093623;28;20950;-73
2022/07/12 10:28:46;;;;;;;1.47;1.13;;;;;;;;;;5093515;28;20462;-73
2022/07/12 10:31:13;;;;;;;1.80;1.20;;;;;;;;;;5093084;28;20470;-73
2022/07/12 10:33:40;;;;;;;1.50;1.20;;;;;;;;;;5093585;28;20450;-74
2022/07/12 10:36:09;;;;;;;1.77;1.10;;;;;;;;;;5093317;28;20445;-73
2022/07/12 10:38:36;;;;;;;1.30;1.00;;;;;;;;;;5093382;28;20454;-74
2022/07/12 10:41:18;;;;;;;4.60;1.00;;;;;;;;;;5093601;28;20843;-73
2022/07/12 10:44:05;;;;;;;1.83;1.00;;;;;;;;;;5093637;28;20435;-73
2022/07/12 10:46:33;;;;;;;1.53;1.10;;;;;;;;;;5093678;28;20807;-73
2022/07/12 10:49:18;;;;;;;1.50;1.00;;;;;;;;;;5093372;28;20490;-74
2022/07/12 10:52:11;;;;;;;1.40;1.00;;;;;;;;;;5093140;28;20852;-73
2022/07/12 10:54:39;;;;;;;1.70;1.20;;;;;;;;;;5093133;28;20962;-73
2022/07/12 10:57:07;;;;;;;2.47;1.00;;;;;;;;;;5099675;28;20463;-75
2022/07/12 10:59:35;;;;;;;1.37;0.90;;;;;;;;;;5100613;28;20435;-75
2022/07/12 11:02:02;;;;;;;1.73;1.07;;;;;;;;;;5100398;28;20470;-74
2022/07/12 11:04:29;;;;;;;1.57;1.13;;;;;;;;;;5100006;28;20461;-74
2022/07/12 11:06:58;;;;;;;1.60;1.00;;;;;;;;;;5100227;28;20454;-73
2022/07/12 11:09:26;;;;;;;2.97;1.13;;;;;;;;;;5099928;28;20936;-73
2022/07/12 11:11:54;;;;;;;5.57;1.37;;;;;;;;;;5100054;28;20887;-73
2022/07/12 11:14:22;;;;;;;1.20;0.97;;;;;;;;;;5100022;28;20462;-73
2022/07/12 11:16:51;;;;;;;3.43;1.30;;;;;;;;;;5099886;28;20806;-73
2022/07/12 11:19:22;;;;;;;6.10;1.37;;;;;;;;;;5099879;28;20549;-73
2022/07/12 11:21:55;;;;;;;1.73;1.10;;;;;;;;;;5099753;28;20557;-73
2022/07/12 11:24:23;;;;;;;1.43;1.00;;;;;;;;;;5099833;28;20463;-73
2022/07/12 11:26:50;;;;;;;2.37;1.10;;;;;;;;;;5099868;28;20450;-73
2022/07/12 11:29:19;;;;;;;3.40;1.00;;;;;;;;;;5100002;28;20447;-73
2022/07/12 11:31:47;;;;;;;1.40;1.10;;;;;;;;;;5099905;28;20498;-73
2022/07/12 11:34:23;;;;;;;1.30;1.10;;;;;;;;;;5099788;28;20461;-73
2022/07/12 11:36:53;;;;;;;1.50;1.17;;;;;;;;;;5099786;28;20456;-73
2022/07/12 11:39:31;;;;;;;4.50;1.20;;;;;;;;;;5099913;28;20515;-73
2022/07/12 11:41:58;;;;;;;1.40;1.03;;;;;;;;;;5099854;28;20521;-73
2022/07/12 11:44:42;;;;;;;1.70;1.30;;;;;;;;;;5099992;28;20481;-73
2022/07/12 11:47:09;;;;;;;2.93;1.20;;;;;;;;;;5099973;28;20441;-73
2022/07/12 11:49:36;;;;;;;3.00;1.00;;;;;;;;;;5099895;28;20461;-73
2022/07/12 11:52:06;;;;;;;1.53;1.20;;;;;;;;;;5099544;28;20486;-73
2022/07/12 11:54:33;;;;;;;2.27;1.00;;;;;;;;;;5099589;28;20430;-73
2022/07/12 11:57:07;;;;;;;1.57;1.10;;;;;;;;;;5099902;28;20461;-74
2022/07/12 11:59:36;;;;;;;1.33;1.10;;;;;;;;;;5099786;28;20430;-73
2022/07/12 12:02:07;;;;;;;1.40;1.10;;;;;;;;;;5099702;28;20466;-73
2022/07/12 12:04:45;;;;;;;4.03;1.07;;;;;;;;;;5099272;28;20485;-74
2022/07/12 12:07:16;;;;;;;1.30;1.00;;;;;;;;;;5094642;28;20450;-73
2022/07/12 12:10:01;;;;;;;1.50;1.20;;;;;;;;;;5094289;28;20912;-73
2022/07/12 12:12:29;;;;;;;1.50;1.10;;;;;;;;;;5094587;28;20501;-73
2022/07/12 12:14:57;;;;;;;1.40;1.03;;;;;;;;;;5094479;28;20454;-73
2022/07/12 12:17:24;;;;;;;4.17;1.10;;;;;;;;;;5094715;28;20431;-73
2022/07/12 12:19:52;;;;;;;1.50;1.10;;;;;;;;;;5095148;28;20901;-74
2022/07/12 12:22:39;;;;;;;1.40;1.10;;;;;;;;;;5094793;28;20467;-73
2022/07/12 12:25:12;;;;;;;1.40;1.10;;;;;;;;;;5090889;28;20466;-73
2022/07/12 12:27:42;;;;;;;1.60;1.30;;;;;;;;;;5095665;28;20868;-73
2022/07/12 12:30:11;;;;;;;1.50;1.20;;;;;;;;;;5095877;28;20454;-73
2022/07/12 12:32:49;;;;;;;1.40;1.03;;;;;;;;;;5095618;28;20486;-73
2022/07/12 12:35:17;;;;;;;1.47;1.20;;;;;;;;;;5095820;28;20458;-74
2022/07/12 12:37:50;;;;;;;1.40;1.20;;;;;;;;;;5095851;28;20932;-73
2022/07/12 12:40:19;;;;;;;1.40;1.00;;;;;;;;;;5095879;28;20944;-75
2022/07/12 12:42:47;;;;;;;2.53;1.30;;;;;;;;;;5095562;28;20516;-75
2022/07/12 12:45:20;;;;;;;1.80;1.40;;;;;;;;;;5095814;28;20527;-75
2022/07/12 12:47:54;;;;;;;2.10;1.70;;;;;;;;;;5095877;28;20492;-75
2022/07/12 12:50:36;;;;;;;1.60;1.10;;;;;;;;;;5095842;28;20435;-75
2022/07/12 12:53:08;;;;;;;1.60;1.20;;;;;;;;;;5095487;28;20497;-74
2022/07/12 12:55:35;;;;;;;1.83;1.20;;;;;;;;;;5095668;28;20438;-75
2022/07/12 12:58:02;;;;;;;2.80;1.10;;;;;;;;;;5095342;28;20447;-75
2022/07/12 13:00:31;;;;;;;2.90;1.20;;;;;;;;;;5095293;28;20434;-75
2022/07/12 13:02:59;;;;;;;3.20;1.10;;;;;;;;;;5095014;28;20463;-75
2022/07/12 13:05:26;;;;;;;1.40;1.00;;;;;;;;;;5095114;28;20549;-75
2022/07/12 13:07:55;;;;;;;1.40;1.20;;;;;;;;;;5095531;28;20458;-77
2022/07/12 13:10:22;;;;;;;1.50;1.30;;;;;;;;;;5095520;28;20442;-75
2022/07/12 13:12:49;;;;;;;1.40;1.10;;;;;;;;;;5095385;28;20518;-74
2022/07/12 13:15:16;;;;;;;1.50;1.40;;;;;;;;;;5095230;28;20451;-74
2022/07/12 13:17:45;;;;;;;2.70;2.13;;;;;;;;;;5095160;28;20474;-73
2022/07/12 13:20:13;;;;;;;1.63;1.00;;;;;;;;;;5094733;28;20455;-73
2022/07/12 13:22:40;;;;;;;1.43;1.13;;;;;;;;;;5094969;28;20498;-73
2022/07/12 13:25:08;;;;;;;2.83;1.23;;;;;;;;;;5094673;28;20984;-73
2022/07/12 13:27:35;;;;;;;1.87;1.10;;;;;;;;;;5094621;28;20455;-73
2022/07/12 13:30:03;;;;;;;2.03;1.27;;;;;;;;;;5095120;28;20439;-73
2022/07/12 13:32:30;;;;;;;1.70;1.20;;;;;;;;;;5094700;28;20490;-73
2022/07/12 13:34:59;;;;;;;1.40;1.10;;;;;;;;;;5094796;28;20461;-73
2022/07/12 13:37:26;;;;;;;4.33;1.40;;;;;;;;;;5094712;28;20459;-73
2022/07/12 13:40:11;;;;;;;1.50;1.30;;;;;;;;;;5094521;28;20435;-73
2022/07/12 13:42:39;;;;;;;1.80;1.60;;;;;;;;;;5094332;28;20471;-73
2022/07/12 13:45:06;;;;;;;2.53;1.40;;;;;;;;;;5094611;28;20459;-73
2022/07/12 13:47:34;;;;;;;2.63;1.50;;;;;;;;;;5094540;28;20455;-73
2022/07/12 13:50:03;;;;;;;1.80;1.30;;;;;;;;;;5094590;28;20896;-73
2022/07/12 13:52:30;;;;;;;1.53;1.10;;;;;;;;;;5094303;28;20832;-73
2022/07/12 13:54:57;;;;;;;2.00;1.30;;;;;;;;;;5094164;28;20431;-73
2022/07/12 13:57:25;;;;;;;2.23;1.60;;;;;;;;;;5094411;28;20508;-73
2022/07/12 13:59:53;;;;;;;1.90;1.53;;;;;;;;;;5094377;28;20435;-73
2022/07/12 14:02:20;;;;;;;2.60;1.50;;;;;;;;;;5094170;28;20911;-73
2022/07/12 14:04:47;;;;;;;1.60;1.30;;;;;;;;;;5079510;28;20460;-73
2022/07/12 14:07:16;;;;;;;2.20;1.90;;;;;;;;;;5072653;28;20439;-73
2022/07/12 14:09:43;;;;;;;2.83;1.53;;;;;;;;;;5072713;28;20459;-73
2022/07/12 14:12:10;;;;;;;1.80;1.50;;;;;;;;;;5073260;28;20482;-73
2022/07/12 14:17:22;;;;;;;1.80;1.47;;;;;;;;;;5073429;28;20407;-73
2022/07/12 14:19:49;;;;;;;1.43;1.20;;;;;;;;;;5073699;28;20432;-73
2022/07/12 14:22:17;;;;;;;1.50;1.30;;;;;;;;;;5073256;28;20468;-73
2022/07/12 14:24:44;;;;;;;1.77;1.40;;;;;;;;;;5073386;28;20463;-73
2022/07/12 14:27:12;;;;;;;2.10;1.83;;;;;;;;;;5073187;28;20459;-73
2022/07/12 14:29:39;;;;;;;6.90;1.30;;;;;;;;;;5073290;28;20444;-73
2022/07/12 14:32:06;;;;;;;1.73;1.50;;;;;;;;;;5073168;28;20875;-73
2022/07/12 14:34:33;;;;;;;2.00;1.70;;;;;;;;;;5073577;28;20885;-73
2022/07/12 14:37:01;;;;;;;2.30;2.10;;;;;;;;;;5073297;28;20518;-74
2022/07/12 14:39:30;;;;;;;1.90;1.73;;;;;;;;;;5073601;28;20853;-74
2022/07/12 14:41:58;;;;;;;1.80;1.67;;;;;;;;;;5073448;28;20475;-74
2022/07/12 14:44:26;;;;;;;10.10;1.57;;;;;;;;;;5073496;28;20961;-73
2022/07/12 14:46:53;;;;;;;3.20;1.90;;;;;;;;;;5073507;28;21010;-74
2022/07/12 14:49:21;;;;;;;2.13;1.50;;;;;;;;;;5073418;28;20982;-74
2022/07/12 14:51:48;;;;;;;2.07;1.63;;;;;;;;;;5073399;28;20478;-74
2022/07/12 14:54:15;;;;;;;1.67;1.53;;;;;;;;;;5073101;28;20472;-74
2022/07/12 14:56:44;;;;;;;2.63;1.70;;;;;;;;;;5073446;28;20447;-74
2022/07/12 14:59:11;;;;;;;1.97;1.70;;;;;;;;;;5073326;28;20944;-74
2022/07/12 15:01:38;;;;;;;1.67;1.53;;;;;;;;;;5073443;28;21019;-74